sensor_id;sensor_type;location;lat;lon;timestamp;temperature;humidity
6407;DHT22;3236;51.022;6.818;2023-08-07T00:07:20;13.20;99.90
6407;DHT22;3236;51.022;6.818;2023-08-07T00:09:48;13.20;99.90
6407;DHT22;3236;51.022;6.818;2023-08-07T00:12:15;13.20;99.90
6407;DHT22;3236;51.022;6.818;2023-08-07T00:14:42;13.60;99.90
6407;DHT22;3236;51.022;6.818;2023-08-07T00:22:06;13.10;99.90
6407;DHT22;3236;51.022;6.818;2023-08-07T00:24:33;13.10;99.90
6407;DHT22;3236;51.022;6.818;2023-08-07T00:27:01;13.10;99.90
6407;DHT22;3236;51.022;6.818;2023-08-07T00:29:30;12.90;99.90
6407;DHT22;3236;51.022;6.818;2023-08-07T00:31:58;13.10;99.90
6407;DHT22;3236;51.022;6.818;2023-08-07T00:34:25;13.10;99.90
6407;DHT22;3236;51.022;6.818;2023-08-07T00:36:59;13.10;99.90
6407;DHT22;3236;51.022;6.818;2023-08-07T00:39:27;13.00;99.90
6407;DHT22;3236;51.022;6.818;2023-08-07T00:41:55;13.10;99.90
6407;DHT22;3236;51.022;6.818;2023-08-07T00:44:22;12.70;99.90
6407;DHT22;3236;51.022;6.818;2023-08-07T00:46:52;13.10;99.90
6407;DHT22;3236;51.022;6.818;2023-08-07T00:49:21;13.10;99.90
6407;DHT22;3236;51.022;6.818;2023-08-07T00:51:48;13.00;99.90
6407;DHT22;3236;51.022;6.818;2023-08-07T00:54:18;13.10;99.90
6407;DHT22;3236;51.022;6.818;2023-08-07T00:56:48;13.40;99.90
6407;DHT22;3236;51.022;6.818;2023-08-07T01:01:51;13.00;99.90
6407;DHT22;3236;51.022;6.818;2023-08-07T01:04:21;12.70;99.90
6407;DHT22;3236;51.022;6.818;2023-08-07T01:06:48;12.70;99.90
6407;DHT22;3236;51.022;6.818;2023-08-07T01:09:15;13.00;99.90
6407;DHT22;3236;51.022;6.818;2023-08-07T01:11:45;13.00;99.90
6407;DHT22;3236;51.022;6.818;2023-08-07T01:14:24;13.00;99.90
6407;DHT22;3236;51.022;6.818;2023-08-07T01:16:59;13.10;99.90
6407;DHT22;3236;51.022;6.818;2023-08-07T01:19:28;13.10;99.90
6407;DHT22;3236;51.022;6.818;2023-08-07T01:22:07;13.00;99.90
6407;DHT22;3236;51.022;6.818;2023-08-07T01:32:08;12.90;99.90
6407;DHT22;3236;51.022;6.818;2023-08-07T01:34:37;13.00;99.90
6407;DHT22;3236;51.022;6.818;2023-08-07T01:37:10;13.00;99.90
6407;DHT22;3236;51.022;6.818;2023-08-07T01:39:39;13.20;99.90
6407;DHT22;3236;51.022;6.818;2023-08-07T01:42:08;12.90;99.90
6407;DHT22;3236;51.022;6.818;2023-08-07T01:47:05;13.10;99.90
6407;DHT22;3236;51.022;6.818;2023-08-07T01:52:05;13.00;99.90
6407;DHT22;3236;51.022;6.818;2023-08-07T01:54:34;12.60;99.90
6407;DHT22;3236;51.022;6.818;2023-08-07T01:57:01;13.10;99.90
6407;DHT22;3236;51.022;6.818;2023-08-07T02:04:23;12.80;99.90
6407;DHT22;3236;51.022;6.818;2023-08-07T02:06:50;13.00;99.90
6407;DHT22;3236;51.022;6.818;2023-08-07T02:09:18;13.10;99.90
6407;DHT22;3236;51.022;6.818;2023-08-07T02:11:46;12.70;99.90
6407;DHT22;3236;51.022;6.818;2023-08-07T02:14:16;13.10;99.90
6407;DHT22;3236;51.022;6.818;2023-08-07T02:24:09;13.70;99.90
6407;DHT22;3236;51.022;6.818;2023-08-07T02:26:38;12.90;99.90
6407;DHT22;3236;51.022;6.818;2023-08-07T02:36:32;13.10;99.90
6407;DHT22;3236;51.022;6.818;2023-08-07T02:38:59;13.20;99.90
6407;DHT22;3236;51.022;6.818;2023-08-07T02:46:25;13.00;99.90
6407;DHT22;3236;51.022;6.818;2023-08-07T02:51:19;12.90;99.90
6407;DHT22;3236;51.022;6.818;2023-08-07T02:56:14;12.80;99.90
6407;DHT22;3236;51.022;6.818;2023-08-07T02:58:41;13.30;99.90
6407;DHT22;3236;51.022;6.818;2023-08-07T03:03:38;13.20;99.90
6407;DHT22;3236;51.022;6.818;2023-08-07T03:06:05;12.90;99.90
6407;DHT22;3236;51.022;6.818;2023-08-07T03:16:05;12.80;99.90
6407;DHT22;3236;51.022;6.818;2023-08-07T03:18:33;12.80;99.90
6407;DHT22;3236;51.022;6.818;2023-08-07T03:21:02;12.60;99.90
6407;DHT22;3236;51.022;6.818;2023-08-07T03:23:29;12.80;99.90
6407;DHT22;3236;51.022;6.818;2023-08-07T03:26:02;12.50;99.90
6407;DHT22;3236;51.022;6.818;2023-08-07T03:30:57;12.70;99.90
6407;DHT22;3236;51.022;6.818;2023-08-07T03:33:24;12.70;99.90
6407;DHT22;3236;51.022;6.818;2023-08-07T03:35:51;12.70;99.90
6407;DHT22;3236;51.022;6.818;2023-08-07T03:38:19;12.80;99.90
6407;DHT22;3236;51.022;6.818;2023-08-07T03:45:42;12.80;99.90
6407;DHT22;3236;51.022;6.818;2023-08-07T03:48:09;12.80;99.90
6407;DHT22;3236;51.022;6.818;2023-08-07T03:50:36;12.40;99.90
6407;DHT22;3236;51.022;6.818;2023-08-07T03:53:04;12.70;99.90
6407;DHT22;3236;51.022;6.818;2023-08-07T03:55:34;12.90;99.90
6407;DHT22;3236;51.022;6.818;2023-08-07T03:58:01;13.00;99.90
6407;DHT22;3236;51.022;6.818;2023-08-07T04:02:56;12.90;99.90
6407;DHT22;3236;51.022;6.818;2023-08-07T04:05:23;12.80;99.90
6407;DHT22;3236;51.022;6.818;2023-08-07T04:10:18;13.20;99.90
6407;DHT22;3236;51.022;6.818;2023-08-07T04:12:46;12.80;99.90
6407;DHT22;3236;51.022;6.818;2023-08-07T04:17:43;12.70;99.90
6407;DHT22;3236;51.022;6.818;2023-08-07T04:20:11;12.70;99.90
6407;DHT22;3236;51.022;6.818;2023-08-07T04:27:37;12.80;99.90
6407;DHT22;3236;51.022;6.818;2023-08-07T04:30:07;12.60;99.90
6407;DHT22;3236;51.022;6.818;2023-08-07T04:35:04;13.00;99.90
6407;DHT22;3236;51.022;6.818;2023-08-07T04:37:35;12.50;99.90
6407;DHT22;3236;51.022;6.818;2023-08-07T04:40:03;12.60;99.90
6407;DHT22;3236;51.022;6.818;2023-08-07T04:42:31;12.70;99.90
6407;DHT22;3236;51.022;6.818;2023-08-07T04:54:50;13.00;99.90
6407;DHT22;3236;51.022;6.818;2023-08-07T05:02:11;13.00;99.90
6407;DHT22;3236;51.022;6.818;2023-08-07T05:07:07;12.60;99.90
6407;DHT22;3236;51.022;6.818;2023-08-07T05:12:03;12.80;99.90
6407;DHT22;3236;51.022;6.818;2023-08-07T05:16:57;12.60;99.90
6407;DHT22;3236;51.022;6.818;2023-08-07T05:19:25;13.00;99.90
6407;DHT22;3236;51.022;6.818;2023-08-07T05:21:53;13.20;99.90
6407;DHT22;3236;51.022;6.818;2023-08-07T05:24:20;12.70;99.90
6407;DHT22;3236;51.022;6.818;2023-08-07T05:26:47;12.80;99.90
6407;DHT22;3236;51.022;6.818;2023-08-07T05:31:42;12.80;99.90
6407;DHT22;3236;51.022;6.818;2023-08-07T05:34:12;13.20;99.90
6407;DHT22;3236;51.022;6.818;2023-08-07T05:36:39;12.80;99.90
6407;DHT22;3236;51.022;6.818;2023-08-07T05:39:08;12.90;99.90
6407;DHT22;3236;51.022;6.818;2023-08-07T05:41:36;13.10;99.90
6407;DHT22;3236;51.022;6.818;2023-08-07T05:46:32;13.10;99.90
6407;DHT22;3236;51.022;6.818;2023-08-07T05:48:59;13.20;99.90
6407;DHT22;3236;51.022;6.818;2023-08-07T05:51:26;12.60;99.90
6407;DHT22;3236;51.022;6.818;2023-08-07T05:56:25;13.00;99.90
6407;DHT22;3236;51.022;6.818;2023-08-07T05:58:54;12.70;99.90
6407;DHT22;3236;51.022;6.818;2023-08-07T06:01:24;13.10;99.90
6407;DHT22;3236;51.022;6.818;2023-08-07T06:03:56;12.70;99.90
6407;DHT22;3236;51.022;6.818;2023-08-07T06:06:24;12.90;99.90
6407;DHT22;3236;51.022;6.818;2023-08-07T06:08:53;12.50;99.90
6407;DHT22;3236;51.022;6.818;2023-08-07T06:11:25;12.60;99.90
6407;DHT22;3236;51.022;6.818;2023-08-07T06:13:53;12.70;99.90
6407;DHT22;3236;51.022;6.818;2023-08-07T06:18:48;12.50;99.90
6407;DHT22;3236;51.022;6.818;2023-08-07T06:23:43;12.50;99.90
6407;DHT22;3236;51.022;6.818;2023-08-07T06:28:40;13.00;99.90
6407;DHT22;3236;51.022;6.818;2023-08-07T06:31:09;13.10;99.90
6407;DHT22;3236;51.022;6.818;2023-08-07T06:36:06;12.40;99.90
6407;DHT22;3236;51.022;6.818;2023-08-07T06:38:33;12.40;99.90
6407;DHT22;3236;51.022;6.818;2023-08-07T06:43:28;12.80;99.90
6407;DHT22;3236;51.022;6.818;2023-08-07T06:45:57;13.00;99.90
6407;DHT22;3236;51.022;6.818;2023-08-07T06:48:24;12.80;99.90
6407;DHT22;3236;51.022;6.818;2023-08-07T06:50:54;12.90;99.90
6407;DHT22;3236;51.022;6.818;2023-08-07T06:53:28;13.20;99.90
6407;DHT22;3236;51.022;6.818;2023-08-07T06:55:59;13.00;99.90
6407;DHT22;3236;51.022;6.818;2023-08-07T06:58:26;12.50;99.90
6407;DHT22;3236;51.022;6.818;2023-08-07T07:00:53;12.90;99.90
6407;DHT22;3236;51.022;6.818;2023-08-07T07:03:21;12.40;99.90
6407;DHT22;3236;51.022;6.818;2023-08-07T07:05:49;12.90;99.90
6407;DHT22;3236;51.022;6.818;2023-08-07T07:10:43;13.10;99.90
6407;DHT22;3236;51.022;6.818;2023-08-07T07:13:10;12.60;99.90
6407;DHT22;3236;51.022;6.818;2023-08-07T07:15:38;13.20;99.90
6407;DHT22;3236;51.022;6.818;2023-08-07T07:20:37;12.70;99.90
6407;DHT22;3236;51.022;6.818;2023-08-07T07:23:04;13.40;99.90
6407;DHT22;3236;51.022;6.818;2023-08-07T07:25:31;13.50;99.90
6407;DHT22;3236;51.022;6.818;2023-08-07T07:27:58;12.90;99.90
6407;DHT22;3236;51.022;6.818;2023-08-07T07:30:25;13.00;99.90
6407;DHT22;3236;51.022;6.818;2023-08-07T07:32:52;12.90;99.90
6407;DHT22;3236;51.022;6.818;2023-08-07T07:35:19;12.60;99.90
6407;DHT22;3236;51.022;6.818;2023-08-07T07:37:48;13.00;99.90
6407;DHT22;3236;51.022;6.818;2023-08-07T07:40:15;13.00;99.90
6407;DHT22;3236;51.022;6.818;2023-08-07T07:42:42;13.10;99.90
6407;DHT22;3236;51.022;6.818;2023-08-07T07:45:09;13.00;99.90
6407;DHT22;3236;51.022;6.818;2023-08-07T07:50:07;13.40;99.90
6407;DHT22;3236;51.022;6.818;2023-08-07T07:52:34;13.00;99.90
6407;DHT22;3236;51.022;6.818;2023-08-07T07:55:03;13.30;99.90
6407;DHT22;3236;51.022;6.818;2023-08-07T07:59:58;13.20;99.90
6407;DHT22;3236;51.022;6.818;2023-08-07T08:02:26;13.30;99.90
6407;DHT22;3236;51.022;6.818;2023-08-07T08:04:54;13.30;99.90
6407;DHT22;3236;51.022;6.818;2023-08-07T08:07:21;13.40;99.90
6407;DHT22;3236;51.022;6.818;2023-08-07T08:14:45;13.50;99.90
6407;DHT22;3236;51.022;6.818;2023-08-07T08:17:15;12.30;99.90
6407;DHT22;3236;51.022;6.818;2023-08-07T08:24:37;13.60;99.90
6407;DHT22;3236;51.022;6.818;2023-08-07T08:27:04;13.40;99.90
6407;DHT22;3236;51.022;6.818;2023-08-07T08:29:33;13.60;99.90
6407;DHT22;3236;51.022;6.818;2023-08-07T08:32:01;14.10;99.90
6407;DHT22;3236;51.022;6.818;2023-08-07T08:39:23;14.10;99.90
6407;DHT22;3236;51.022;6.818;2023-08-07T08:41:53;14.00;99.90
6407;DHT22;3236;51.022;6.818;2023-08-07T08:44:22;14.10;99.90
6407;DHT22;3236;51.022;6.818;2023-08-07T08:46:52;14.00;99.90
6407;DHT22;3236;51.022;6.818;2023-08-07T08:49:26;14.50;99.90
6407;DHT22;3236;51.022;6.818;2023-08-07T08:51:55;14.50;99.90
6407;DHT22;3236;51.022;6.818;2023-08-07T08:54:22;14.20;99.90
6407;DHT22;3236;51.022;6.818;2023-08-07T08:56:50;14.60;99.90
6407;DHT22;3236;51.022;6.818;2023-08-07T09:01:45;14.30;99.90
6407;DHT22;3236;51.022;6.818;2023-08-07T09:04:14;15.10;99.90
6407;DHT22;3236;51.022;6.818;2023-08-07T09:06:42;14.30;99.90
6407;DHT22;3236;51.022;6.818;2023-08-07T09:09:11;14.70;99.90
6407;DHT22;3236;51.022;6.818;2023-08-07T09:11:41;14.50;99.90
6407;DHT22;3236;51.022;6.818;2023-08-07T09:14:17;14.70;99.90
6407;DHT22;3236;51.022;6.818;2023-08-07T09:16:44;14.90;99.90
6407;DHT22;3236;51.022;6.818;2023-08-07T09:19:14;14.70;99.90
6407;DHT22;3236;51.022;6.818;2023-08-07T09:24:09;14.70;99.90
6407;DHT22;3236;51.022;6.818;2023-08-07T09:26:39;14.90;99.90
6407;DHT22;3236;51.022;6.818;2023-08-07T09:29:09;15.10;99.90
6407;DHT22;3236;51.022;6.818;2023-08-07T09:31:37;15.30;99.90
6407;DHT22;3236;51.022;6.818;2023-08-07T09:34:04;15.20;99.90
6407;DHT22;3236;51.022;6.818;2023-08-07T09:36:33;15.70;99.90
6407;DHT22;3236;51.022;6.818;2023-08-07T09:39:01;15.40;99.90
6407;DHT22;3236;51.022;6.818;2023-08-07T09:41:29;15.00;99.90
6407;DHT22;3236;51.022;6.818;2023-08-07T09:43:56;15.60;99.90
6407;DHT22;3236;51.022;6.818;2023-08-07T09:46:25;15.70;99.90
6407;DHT22;3236;51.022;6.818;2023-08-07T09:48:57;16.10;99.90
6407;DHT22;3236;51.022;6.818;2023-08-07T09:51:25;15.50;99.90
6407;DHT22;3236;51.022;6.818;2023-08-07T09:53:53;15.80;99.90
6407;DHT22;3236;51.022;6.818;2023-08-07T09:56:21;16.20;99.90
6407;DHT22;3236;51.022;6.818;2023-08-07T09:58:48;16.40;99.90
6407;DHT22;3236;51.022;6.818;2023-08-07T10:01:16;16.10;99.90
6407;DHT22;3236;51.022;6.818;2023-08-07T10:03:44;16.60;99.90
6407;DHT22;3236;51.022;6.818;2023-08-07T10:06:12;16.10;99.90
6407;DHT22;3236;51.022;6.818;2023-08-07T10:08:40;17.10;99.90
6407;DHT22;3236;51.022;6.818;2023-08-07T10:13:37;16.50;99.90
6407;DHT22;3236;51.022;6.818;2023-08-07T10:16:06;16.30;99.90
6407;DHT22;3236;51.022;6.818;2023-08-07T10:18:34;16.90;99.90
6407;DHT22;3236;51.022;6.818;2023-08-07T10:21:03;17.80;99.90
6407;DHT22;3236;51.022;6.818;2023-08-07T10:23:31;17.00;99.90
6407;DHT22;3236;51.022;6.818;2023-08-07T10:26:02;17.60;99.90
6407;DHT22;3236;51.022;6.818;2023-08-07T10:28:33;18.20;99.90
6407;DHT22;3236;51.022;6.818;2023-08-07T10:31:04;17.90;4.70
6407;DHT22;3236;51.022;6.818;2023-08-07T10:33:33;18.60;1.00
6407;DHT22;3236;51.022;6.818;2023-08-07T10:36:08;17.70;99.90
6407;DHT22;3236;51.022;6.818;2023-08-07T10:38:36;17.90;99.90
6407;DHT22;3236;51.022;6.818;2023-08-07T10:41:09;18.60;1.00
6407;DHT22;3236;51.022;6.818;2023-08-07T10:46:15;19.50;19.40
6407;DHT22;3236;51.022;6.818;2023-08-07T10:48:47;20.20;99.90
6407;DHT22;3236;51.022;6.818;2023-08-07T10:51:17;19.50;99.90
6407;DHT22;3236;51.022;6.818;2023-08-07T10:56:16;17.80;99.90
6407;DHT22;3236;51.022;6.818;2023-08-07T10:58:49;18.40;99.90
6407;DHT22;3236;51.022;6.818;2023-08-07T11:01:39;18.80;99.90
6407;DHT22;3236;51.022;6.818;2023-08-07T11:04:12;19.10;99.90
6407;DHT22;3236;51.022;6.818;2023-08-07T11:06:42;18.90;1.00
6407;DHT22;3236;51.022;6.818;2023-08-07T11:09:10;19.40;99.90
6407;DHT22;3236;51.022;6.818;2023-08-07T11:11:37;19.10;99.90
6407;DHT22;3236;51.022;6.818;2023-08-07T11:14:07;19.40;57.50
6407;DHT22;3236;51.022;6.818;2023-08-07T11:16:35;19.30;1.00
6407;DHT22;3236;51.022;6.818;2023-08-07T11:19:03;20.10;99.90
6407;DHT22;3236;51.022;6.818;2023-08-07T11:21:31;20.20;1.00
6407;DHT22;3236;51.022;6.818;2023-08-07T11:23:59;19.60;99.90
6407;DHT22;3236;51.022;6.818;2023-08-07T11:31:26;20.10;99.90
6407;DHT22;3236;51.022;6.818;2023-08-07T11:33:54;20.70;99.90
6407;DHT22;3236;51.022;6.818;2023-08-07T11:36:23;21.40;1.00
6407;DHT22;3236;51.022;6.818;2023-08-07T11:38:50;20.10;99.90
6407;DHT22;3236;51.022;6.818;2023-08-07T11:41:18;19.80;76.50
6407;DHT22;3236;51.022;6.818;2023-08-07T11:46:14;20.90;1.00
6407;DHT22;3236;51.022;6.818;2023-08-07T11:48:44;20.80;99.90
6407;DHT22;3236;51.022;6.818;2023-08-07T11:51:11;20.60;99.90
6407;DHT22;3236;51.022;6.818;2023-08-07T11:53:40;20.30;99.90
6407;DHT22;3236;51.022;6.818;2023-08-07T11:56:09;20.40;99.90
6407;DHT22;3236;51.022;6.818;2023-08-07T11:58:37;21.70;99.90
6407;DHT22;3236;51.022;6.818;2023-08-07T12:01:05;21.00;99.90
6407;DHT22;3236;51.022;6.818;2023-08-07T12:03:35;20.90;99.90
6407;DHT22;3236;51.022;6.818;2023-08-07T12:06:07;20.10;99.90
6407;DHT22;3236;51.022;6.818;2023-08-07T12:08:36;20.40;97.20
6407;DHT22;3236;51.022;6.818;2023-08-07T12:13:31;21.10;1.00
6407;DHT22;3236;51.022;6.818;2023-08-07T12:18:29;21.10;1.00
6407;DHT22;3236;51.022;6.818;2023-08-07T12:21:00;21.60;1.00
6407;DHT22;3236;51.022;6.818;2023-08-07T12:23:28;21.60;99.90
6407;DHT22;3236;51.022;6.818;2023-08-07T12:25:56;21.40;99.90
6407;DHT22;3236;51.022;6.818;2023-08-07T12:28:23;22.20;99.90
6407;DHT22;3236;51.022;6.818;2023-08-07T12:30:51;21.90;99.90
6407;DHT22;3236;51.022;6.818;2023-08-07T12:38:17;21.60;99.90
6407;DHT22;3236;51.022;6.818;2023-08-07T12:40:47;22.10;99.90
6407;DHT22;3236;51.022;6.818;2023-08-07T12:45:41;23.00;99.90
6407;DHT22;3236;51.022;6.818;2023-08-07T12:48:09;22.50;99.90
6407;DHT22;3236;51.022;6.818;2023-08-07T12:50:36;22.30;99.90
6407;DHT22;3236;51.022;6.818;2023-08-07T12:53:04;22.50;99.90
6407;DHT22;3236;51.022;6.818;2023-08-07T12:55:31;23.00;99.90
6407;DHT22;3236;51.022;6.818;2023-08-07T12:58:00;23.00;99.90
6407;DHT22;3236;51.022;6.818;2023-08-07T13:02:54;22.90;99.90
6407;DHT22;3236;51.022;6.818;2023-08-07T13:05:22;23.30;99.90
6407;DHT22;3236;51.022;6.818;2023-08-07T13:07:50;22.90;99.90
6407;DHT22;3236;51.022;6.818;2023-08-07T13:10:19;23.40;99.90
6407;DHT22;3236;51.022;6.818;2023-08-07T13:12:48;22.90;99.90
6407;DHT22;3236;51.022;6.818;2023-08-07T13:15:17;23.10;99.90
6407;DHT22;3236;51.022;6.818;2023-08-07T13:17:44;23.70;99.90
6407;DHT22;3236;51.022;6.818;2023-08-07T13:20:13;24.30;99.90
6407;DHT22;3236;51.022;6.818;2023-08-07T13:22:41;23.90;98.80
6407;DHT22;3236;51.022;6.818;2023-08-07T13:25:10;23.40;99.90
6407;DHT22;3236;51.022;6.818;2023-08-07T13:27:40;23.90;99.90
6407;DHT22;3236;51.022;6.818;2023-08-07T13:30:08;23.50;90.30
6407;DHT22;3236;51.022;6.818;2023-08-07T13:35:05;23.80;99.90
6407;DHT22;3236;51.022;6.818;2023-08-07T13:44:58;23.50;99.90
6407;DHT22;3236;51.022;6.818;2023-08-07T13:47:25;23.40;99.90
6407;DHT22;3236;51.022;6.818;2023-08-07T13:49:56;23.10;99.90
6407;DHT22;3236;51.022;6.818;2023-08-07T13:54:54;23.50;99.90
6407;DHT22;3236;51.022;6.818;2023-08-07T13:57:21;23.30;99.90
6407;DHT22;3236;51.022;6.818;2023-08-07T13:59:48;23.70;99.90
6407;DHT22;3236;51.022;6.818;2023-08-07T14:02:15;23.90;99.90
6407;DHT22;3236;51.022;6.818;2023-08-07T14:09:40;20.50;99.90
6407;DHT22;3236;51.022;6.818;2023-08-07T14:12:07;19.80;99.90
6407;DHT22;3236;51.022;6.818;2023-08-07T14:14:34;19.90;99.40
6407;DHT22;3236;51.022;6.818;2023-08-07T14:17:02;19.20;99.90
6407;DHT22;3236;51.022;6.818;2023-08-07T14:19:29;18.80;14.80
6407;DHT22;3236;51.022;6.818;2023-08-07T14:21:56;18.50;1.00
6407;DHT22;3236;51.022;6.818;2023-08-07T14:24:24;18.80;59.70
6407;DHT22;3236;51.022;6.818;2023-08-07T14:31:46;19.20;99.90
6407;DHT22;3236;51.022;6.818;2023-08-07T14:34:13;19.40;99.90
6407;DHT22;3236;51.022;6.818;2023-08-07T14:36:40;20.60;99.90
6407;DHT22;3236;51.022;6.818;2023-08-07T14:44:04;22.70;79.80
6407;DHT22;3236;51.022;6.818;2023-08-07T14:48:58;22.10;99.90
6407;DHT22;3236;51.022;6.818;2023-08-07T14:51:25;20.70;99.90
6407;DHT22;3236;51.022;6.818;2023-08-07T14:53:53;22.40;1.00
6407;DHT22;3236;51.022;6.818;2023-08-07T15:01:16;20.00;33.60
6407;DHT22;3236;51.022;6.818;2023-08-07T15:03:43;19.50;99.90
6407;DHT22;3236;51.022;6.818;2023-08-07T15:06:10;18.80;1.00
6407;DHT22;3236;51.022;6.818;2023-08-07T15:16:01;20.80;29.20
6407;DHT22;3236;51.022;6.818;2023-08-07T15:18:28;20.30;1.00
6407;DHT22;3236;51.022;6.818;2023-08-07T15:20:56;20.40;97.60
6407;DHT22;3236;51.022;6.818;2023-08-07T15:25:51;19.90;99.90
6407;DHT22;3236;51.022;6.818;2023-08-07T15:28:18;19.40;32.10
6407;DHT22;3236;51.022;6.818;2023-08-07T15:30:47;20.10;99.90
6407;DHT22;3236;51.022;6.818;2023-08-07T15:33:17;21.10;99.90
6407;DHT22;3236;51.022;6.818;2023-08-07T15:35:45;21.60;99.90
6407;DHT22;3236;51.022;6.818;2023-08-07T15:40:40;22.50;99.90
6407;DHT22;3236;51.022;6.818;2023-08-07T15:45:36;24.00;63.90
6407;DHT22;3236;51.022;6.818;2023-08-07T15:48:04;23.90;99.90
6407;DHT22;3236;51.022;6.818;2023-08-07T15:50:34;24.00;99.90
6407;DHT22;3236;51.022;6.818;2023-08-07T15:53:04;24.00;99.90
6407;DHT22;3236;51.022;6.818;2023-08-07T15:55:31;24.70;99.90
6407;DHT22;3236;51.022;6.818;2023-08-07T15:58:01;25.20;99.90
6407;DHT22;3236;51.022;6.818;2023-08-07T16:00:29;24.40;99.90
6407;DHT22;3236;51.022;6.818;2023-08-07T16:03:00;23.40;99.90
6407;DHT22;3236;51.022;6.818;2023-08-07T16:05:27;22.70;99.90
6407;DHT22;3236;51.022;6.818;2023-08-07T16:07:56;21.60;1.00
6407;DHT22;3236;51.022;6.818;2023-08-07T16:12:52;21.20;99.90
6407;DHT22;3236;51.022;6.818;2023-08-07T16:15:19;20.40;35.90
6407;DHT22;3236;51.022;6.818;2023-08-07T16:17:46;21.20;99.90
6407;DHT22;3236;51.022;6.818;2023-08-07T16:20:13;22.40;1.00
6407;DHT22;3236;51.022;6.818;2023-08-07T16:22:40;23.50;99.90
6407;DHT22;3236;51.022;6.818;2023-08-07T16:25:09;22.80;99.90
6407;DHT22;3236;51.022;6.818;2023-08-07T16:27:40;22.40;99.90
6407;DHT22;3236;51.022;6.818;2023-08-07T16:30:07;22.70;1.00
6407;DHT22;3236;51.022;6.818;2023-08-07T16:32:36;23.40;1.00
6407;DHT22;3236;51.022;6.818;2023-08-07T16:35:04;22.80;99.90
6407;DHT22;3236;51.022;6.818;2023-08-07T16:37:31;21.90;99.90
6407;DHT22;3236;51.022;6.818;2023-08-07T16:39:59;21.80;99.90
6407;DHT22;3236;51.022;6.818;2023-08-07T16:42:28;20.50;99.90
6407;DHT22;3236;51.022;6.818;2023-08-07T16:49:49;20.20;15.50
6407;DHT22;3236;51.022;6.818;2023-08-07T16:52:20;20.00;99.90
6407;DHT22;3236;51.022;6.818;2023-08-07T16:54:47;19.40;14.40
6407;DHT22;3236;51.022;6.818;2023-08-07T16:59:46;19.70;1.00
6407;DHT22;3236;51.022;6.818;2023-08-07T17:02:13;19.30;99.90
6407;DHT22;3236;51.022;6.818;2023-08-07T17:12:04;19.30;99.90
6407;DHT22;3236;51.022;6.818;2023-08-07T17:17:00;19.10;99.90
6407;DHT22;3236;51.022;6.818;2023-08-07T17:24:22;18.80;29.00
6407;DHT22;3236;51.022;6.818;2023-08-07T17:26:49;19.00;16.70
6407;DHT22;3236;51.022;6.818;2023-08-07T17:29:16;18.90;99.90
6407;DHT22;3236;51.022;6.818;2023-08-07T17:34:12;18.40;99.90
6407;DHT22;3236;51.022;6.818;2023-08-07T17:41:34;18.40;99.90
6407;DHT22;3236;51.022;6.818;2023-08-07T17:46:28;18.60;86.30
6407;DHT22;3236;51.022;6.818;2023-08-07T17:51:24;18.20;99.90
6407;DHT22;3236;51.022;6.818;2023-08-07T17:53:51;18.60;99.90
6407;DHT22;3236;51.022;6.818;2023-08-07T17:58:47;18.50;1.00
6407;DHT22;3236;51.022;6.818;2023-08-07T18:08:40;18.70;99.90
6407;DHT22;3236;51.022;6.818;2023-08-07T18:25:54;17.70;1.00
6407;DHT22;3236;51.022;6.818;2023-08-07T18:28:21;17.30;51.40
6407;DHT22;3236;51.022;6.818;2023-08-07T18:38:10;17.90;99.90
6407;DHT22;3236;51.022;6.818;2023-08-07T18:43:06;17.20;99.90
6407;DHT22;3236;51.022;6.818;2023-08-07T18:48:00;16.60;99.90
6407;DHT22;3236;51.022;6.818;2023-08-07T18:52:55;16.70;99.90
6407;DHT22;3236;51.022;6.818;2023-08-07T18:55:29;16.90;96.70
6407;DHT22;3236;51.022;6.818;2023-08-07T19:00:26;16.60;99.90
6407;DHT22;3236;51.022;6.818;2023-08-07T19:02:53;16.50;1.00
6407;DHT22;3236;51.022;6.818;2023-08-07T19:05:20;16.70;99.90
6407;DHT22;3236;51.022;6.818;2023-08-07T19:10:17;16.10;99.90
6407;DHT22;3236;51.022;6.818;2023-08-07T19:15:12;15.60;91.20
6407;DHT22;3236;51.022;6.818;2023-08-07T19:17:43;15.80;99.90
6407;DHT22;3236;51.022;6.818;2023-08-07T19:20:11;15.40;99.90
6407;DHT22;3236;51.022;6.818;2023-08-07T19:22:38;15.50;99.90
6407;DHT22;3236;51.022;6.818;2023-08-07T19:25:09;15.40;99.90
6407;DHT22;3236;51.022;6.818;2023-08-07T19:27:36;15.40;99.90
6407;DHT22;3236;51.022;6.818;2023-08-07T19:30:04;14.90;1.00
6407;DHT22;3236;51.022;6.818;2023-08-07T19:32:31;15.50;32.70
6407;DHT22;3236;51.022;6.818;2023-08-07T19:35:00;15.10;55.00
6407;DHT22;3236;51.022;6.818;2023-08-07T19:37:27;14.80;99.90
6407;DHT22;3236;51.022;6.818;2023-08-07T19:39:56;15.00;99.90
6407;DHT22;3236;51.022;6.818;2023-08-07T19:42:23;15.20;99.90
6407;DHT22;3236;51.022;6.818;2023-08-07T19:44:50;15.00;99.90
6407;DHT22;3236;51.022;6.818;2023-08-07T19:47:17;14.90;99.90
6407;DHT22;3236;51.022;6.818;2023-08-07T19:49:44;15.30;99.90
6407;DHT22;3236;51.022;6.818;2023-08-07T19:52:14;14.80;99.90
6407;DHT22;3236;51.022;6.818;2023-08-07T19:54:41;15.00;99.90
6407;DHT22;3236;51.022;6.818;2023-08-07T19:57:11;15.10;99.90
6407;DHT22;3236;51.022;6.818;2023-08-07T20:02:06;14.50;99.90
6407;DHT22;3236;51.022;6.818;2023-08-07T20:04:33;14.40;99.90
6407;DHT22;3236;51.022;6.818;2023-08-07T20:07:00;14.70;99.90
6407;DHT22;3236;51.022;6.818;2023-08-07T20:09:31;14.60;99.90
6407;DHT22;3236;51.022;6.818;2023-08-07T20:11:58;14.70;99.90
6407;DHT22;3236;51.022;6.818;2023-08-07T20:16:52;15.00;99.90
6407;DHT22;3236;51.022;6.818;2023-08-07T20:19:19;15.10;99.90
6407;DHT22;3236;51.022;6.818;2023-08-07T20:21:48;14.80;99.90
6407;DHT22;3236;51.022;6.818;2023-08-07T20:24:15;15.00;99.90
6407;DHT22;3236;51.022;6.818;2023-08-07T20:26:43;14.60;99.90
6407;DHT22;3236;51.022;6.818;2023-08-07T20:29:10;14.50;99.90
6407;DHT22;3236;51.022;6.818;2023-08-07T20:31:38;14.70;99.90
6407;DHT22;3236;51.022;6.818;2023-08-07T20:34:05;15.00;99.90
6407;DHT22;3236;51.022;6.818;2023-08-07T20:41:27;14.40;99.90
6407;DHT22;3236;51.022;6.818;2023-08-07T20:43:55;14.50;99.90
6407;DHT22;3236;51.022;6.818;2023-08-07T20:51:18;14.80;99.90
6407;DHT22;3236;51.022;6.818;2023-08-07T20:53:46;14.40;99.90
6407;DHT22;3236;51.022;6.818;2023-08-07T20:56:13;14.90;99.90
6407;DHT22;3236;51.022;6.818;2023-08-07T20:58:40;14.40;99.90
6407;DHT22;3236;51.022;6.818;2023-08-07T21:01:09;14.90;99.90
6407;DHT22;3236;51.022;6.818;2023-08-07T21:06:03;14.90;99.90
6407;DHT22;3236;51.022;6.818;2023-08-07T21:08:30;14.90;99.90
6407;DHT22;3236;51.022;6.818;2023-08-07T21:10:58;14.40;99.90
6407;DHT22;3236;51.022;6.818;2023-08-07T21:13:25;14.30;99.90
6407;DHT22;3236;51.022;6.818;2023-08-07T21:15:53;14.70;99.90
6407;DHT22;3236;51.022;6.818;2023-08-07T21:18:22;14.20;99.90
6407;DHT22;3236;51.022;6.818;2023-08-07T21:20:49;14.20;99.90
6407;DHT22;3236;51.022;6.818;2023-08-07T21:23:16;14.20;99.90
6407;DHT22;3236;51.022;6.818;2023-08-07T21:25:43;14.70;99.90
6407;DHT22;3236;51.022;6.818;2023-08-07T21:28:13;14.40;99.90
6407;DHT22;3236;51.022;6.818;2023-08-07T21:33:07;14.20;99.90
6407;DHT22;3236;51.022;6.818;2023-08-07T21:35:36;14.40;99.90
6407;DHT22;3236;51.022;6.818;2023-08-07T21:38:03;14.40;99.90
6407;DHT22;3236;51.022;6.818;2023-08-07T21:40:30;14.10;99.90
6407;DHT22;3236;51.022;6.818;2023-08-07T21:42:57;14.60;99.90
6407;DHT22;3236;51.022;6.818;2023-08-07T21:45:24;14.20;99.90
6407;DHT22;3236;51.022;6.818;2023-08-07T21:47:51;14.10;99.90
6407;DHT22;3236;51.022;6.818;2023-08-07T21:50:18;14.10;99.90